Portada
METAR-TAF:

METAR-TAF

Aeroports :

Abumusa, Iran

latitud: 25-52-33N, longitud: 055-02-01E, altitud: 7 m

Observació

L'informe es va fer fa 8 hores i 54 minuts, a les 15:00 UTC
Vent 8 kt del Nord/Nord-Oest
Temperatura 23°C
Humitat 44%
Pressió 1014 hPa
Visibilitat 10 km o més
Escasses núvols a una alçada de 3500 ft

METAR: OIBA 211500Z 33008KT 9999 FEW035 23/10 Q1014

Hora: 03:24 (23:54 UTC)


TAF: manca

Observacions i pronòstics meteorològics de més de 4000 aeroports (METAR i TAF).

Les estacions disponibles són els punts grocs i vermells al mapa.

Posi el ratolí al punt desitjat per veure el nom de l'estació.

Feu clic per veure les observacions i els pronòstics meteorològics.

Per canviar el mapa: feu clic els botons verds amb una creu de color negre per apropar; al botó verd amb un guió per allunyar la imatge; o en les fletxes verdes per a mapes adjacents.


METAR-TAF: